createdAt,value
2018-03-14T00:00:37.856Z,2.53
2018-03-14T00:03:04.466Z,3.47
2018-03-14T00:05:31.074Z,3.35
2018-03-14T00:07:58.470Z,3.60
2018-03-14T00:10:25.129Z,3.72
2018-03-14T00:12:51.735Z,3.65
2018-03-14T00:15:19.160Z,3.70
2018-03-14T00:17:45.764Z,3.83
2018-03-14T00:20:13.132Z,3.80
2018-03-14T00:22:39.755Z,4.18
2018-03-14T00:25:07.136Z,3.90
2018-03-14T00:27:33.759Z,4.32
2018-03-14T00:30:00.408Z,4.35
2018-03-14T00:32:26.989Z,3.97
2018-03-14T00:34:54.510Z,4.22
2018-03-14T00:37:21.250Z,3.50
2018-03-14T00:39:47.878Z,4.62
2018-03-14T00:42:14.484Z,4.72
2018-03-14T00:44:41.077Z,4.55
2018-03-14T00:47:07.662Z,4.25
2018-03-14T00:49:34.252Z,5.40
2018-03-14T00:52:00.910Z,5.15
2018-03-14T00:54:27.510Z,5.00
2018-03-14T00:56:54.133Z,4.43
2018-03-14T00:59:20.720Z,3.95
2018-03-14T01:01:47.377Z,4.55
2018-03-14T01:04:13.987Z,3.37
2018-03-14T01:06:40.616Z,3.75
2018-03-14T01:09:08.623Z,2.22
2018-03-14T01:11:35.365Z,2.25
2018-03-14T01:14:01.950Z,1.50
2018-03-14T01:16:28.588Z,1.60
2018-03-14T01:18:55.209Z,1.65
2018-03-14T01:21:21.836Z,2.03
2018-03-14T01:23:48.411Z,1.73
2018-03-14T01:26:15.022Z,1.45
2018-03-14T01:28:41.662Z,1.50
2018-03-14T01:31:08.250Z,1.45
2018-03-14T01:33:34.850Z,1.10
2018-03-14T01:36:01.430Z,1.42
2018-03-14T01:38:28.078Z,1.02
2018-03-14T01:40:56.400Z,1.00
2018-03-14T01:43:24.150Z,1.23
2018-03-14T01:45:50.745Z,1.30
2018-03-14T01:48:17.354Z,1.20
2018-03-14T01:50:43.958Z,1.40
2018-03-14T01:53:28.268Z,1.58
2018-03-14T01:55:55.623Z,1.60
2018-03-14T01:58:22.979Z,1.80
2018-03-14T02:00:49.598Z,2.12
2018-03-14T02:03:16.185Z,2.30
2018-03-14T02:05:42.839Z,2.40
2018-03-14T02:08:09.468Z,2.90
2018-03-14T02:10:36.443Z,3.10
2018-03-14T02:13:03.075Z,3.00
2018-03-14T02:15:29.668Z,3.10
2018-03-14T02:17:57.050Z,3.37
2018-03-14T02:20:23.672Z,3.95
2018-03-14T02:22:50.271Z,2.92
2018-03-14T02:25:16.868Z,3.40
2018-03-14T02:27:43.492Z,4.20
2018-03-14T02:30:10.271Z,4.68
2018-03-14T02:32:36.903Z,5.00
2018-03-14T02:35:03.497Z,3.85
2018-03-14T02:37:30.085Z,4.20
2018-03-14T02:39:56.685Z,4.20
2018-03-14T02:42:23.297Z,4.70
2018-03-14T02:44:49.959Z,4.87
2018-03-14T02:47:16.534Z,5.32
2018-03-14T02:49:43.136Z,4.70
2018-03-14T02:52:09.714Z,4.78
2018-03-14T02:54:36.357Z,5.97
2018-03-14T02:57:02.931Z,5.90
2018-03-14T02:59:30.253Z,6.28
2018-03-14T03:01:56.838Z,6.47
2018-03-14T03:04:23.462Z,6.45
2018-03-14T03:06:50.218Z,7.47
2018-03-14T03:09:16.841Z,6.65
2018-03-14T03:11:43.487Z,6.65
2018-03-14T03:14:10.080Z,6.70
2018-03-14T03:16:36.695Z,7.40
2018-03-14T03:19:03.394Z,7.10
2018-03-14T03:21:30.018Z,7.70
2018-03-14T03:23:56.597Z,7.45
2018-03-14T03:26:23.223Z,7.03
2018-03-14T03:28:49.793Z,7.40
2018-03-14T03:31:16.395Z,6.60
2018-03-14T03:33:42.963Z,6.50
2018-03-14T03:36:09.554Z,6.00
2018-03-14T03:38:36.126Z,5.80
2018-03-14T03:41:02.713Z,6.32
2018-03-14T03:43:29.308Z,6.65
2018-03-14T03:45:55.896Z,6.03
2018-03-14T03:48:22.484Z,6.00
2018-03-14T03:50:49.115Z,6.50
2018-03-14T03:53:15.730Z,6.50
2018-03-14T03:55:42.290Z,5.80
2018-03-14T03:58:09.555Z,6.90
2018-03-14T04:00:36.181Z,6.97
2018-03-14T04:03:02.762Z,7.55
2018-03-14T04:05:30.066Z,7.75
2018-03-14T04:07:56.667Z,8.50
2018-03-14T04:10:23.249Z,8.70
2018-03-14T04:12:49.827Z,7.50
2018-03-14T04:15:16.619Z,7.72
2018-03-14T04:17:43.166Z,7.85
2018-03-14T04:20:09.763Z,9.07
2018-03-14T04:22:36.388Z,8.73
2018-03-14T04:25:03.015Z,7.37
2018-03-14T04:27:30.366Z,7.75
2018-03-14T04:29:57.703Z,8.32
2018-03-14T04:32:24.286Z,8.05
2018-03-14T04:34:50.852Z,8.10
2018-03-14T04:37:17.454Z,8.50
2018-03-14T04:39:44.054Z,9.48
2018-03-14T04:42:11.404Z,7.85
2018-03-14T04:44:38.771Z,8.18
2018-03-14T04:47:05.374Z,8.60
2018-03-14T04:49:31.967Z,8.52
2018-03-14T04:51:58.562Z,9.35
2018-03-14T04:54:25.217Z,8.85
2018-03-14T04:56:51.836Z,8.05
2018-03-14T04:59:18.510Z,8.00
2018-03-14T05:01:45.128Z,8.70
2018-03-14T05:04:12.449Z,8.50
2018-03-14T05:06:39.039Z,9.02
2018-03-14T05:09:05.664Z,8.43
2018-03-14T05:11:32.251Z,9.68
2018-03-14T05:13:59.027Z,9.18
2018-03-14T05:16:26.328Z,8.90
2018-03-14T05:18:52.935Z,15.20
2018-03-14T05:21:19.597Z,23.73
2018-03-14T05:23:46.492Z,10.27
2018-03-14T05:26:13.951Z,10.40
2018-03-14T05:28:41.330Z,8.90
2018-03-14T05:31:07.930Z,9.23
2018-03-14T05:33:34.527Z,8.18
2018-03-14T05:36:02.127Z,9.40
2018-03-14T05:38:28.737Z,8.13
2018-03-14T05:40:55.382Z,9.65
2018-03-14T05:43:21.970Z,8.45
2018-03-14T05:45:48.581Z,7.97
2018-03-14T05:48:15.996Z,8.50
2018-03-14T05:50:42.582Z,8.20
2018-03-14T05:53:09.150Z,7.80
2018-03-14T05:55:35.755Z,9.10
2018-03-14T05:58:02.350Z,8.30
2018-03-14T06:00:28.969Z,9.23
2018-03-14T06:02:55.580Z,8.85
2018-03-14T06:05:23.117Z,8.85
2018-03-14T06:07:49.670Z,8.65
2018-03-14T06:10:16.558Z,8.88
2018-03-14T06:12:43.223Z,8.55
2018-03-14T06:15:10.775Z,9.77
2018-03-14T06:17:37.357Z,8.05
2018-03-14T06:20:04.046Z,8.95
2018-03-14T06:22:30.630Z,8.05
2018-03-14T06:24:57.227Z,8.80
2018-03-14T06:27:23.800Z,8.77
2018-03-14T06:29:50.491Z,11.40
2018-03-14T06:32:17.033Z,9.98
2018-03-14T06:34:44.375Z,7.53
2018-03-14T06:37:10.992Z,7.60
2018-03-14T06:39:37.586Z,8.70
2018-03-14T06:42:04.309Z,8.30
2018-03-14T06:44:31.660Z,8.85
2018-03-14T06:46:59.098Z,8.50
2018-03-14T06:49:25.671Z,8.27
2018-03-14T06:51:52.335Z,9.20
2018-03-14T06:54:18.998Z,9.45
2018-03-14T06:56:45.592Z,10.40
2018-03-14T06:59:30.825Z,9.50
2018-03-14T07:02:15.703Z,11.43
2018-03-14T07:05:06.639Z,10.43
2018-03-14T07:07:34.052Z,10.30
2018-03-14T07:10:00.633Z,8.98
2018-03-14T07:12:27.991Z,8.13
2018-03-14T07:14:55.314Z,8.25
2018-03-14T07:17:23.654Z,8.40
2018-03-14T07:19:50.239Z,7.28
2018-03-14T07:22:16.992Z,19.40
2018-03-14T07:24:44.374Z,9.10
2018-03-14T07:27:10.951Z,9.15
2018-03-14T07:29:38.315Z,9.02
2018-03-14T07:32:04.938Z,10.20
2018-03-14T07:34:31.609Z,8.75
2018-03-14T07:36:58.928Z,7.85
2018-03-14T07:39:25.540Z,8.23
2018-03-14T07:41:52.149Z,9.15
2018-03-14T07:44:18.756Z,10.40
2018-03-14T07:46:45.323Z,8.38
2018-03-14T07:49:11.896Z,7.30
2018-03-14T07:51:38.484Z,7.00
2018-03-14T07:54:05.190Z,6.87
2018-03-14T07:56:31.800Z,6.37
2018-03-14T07:58:59.235Z,6.37
2018-03-14T08:01:25.765Z,6.18
2018-03-14T08:03:52.355Z,4.85
2018-03-14T08:06:19.762Z,6.30
2018-03-14T08:08:46.368Z,6.28
2018-03-14T08:11:13.964Z,5.12
2018-03-14T08:13:40.692Z,4.40
2018-03-14T08:16:07.398Z,4.40
2018-03-14T08:18:34.000Z,3.92
2018-03-14T08:21:00.627Z,5.75
2018-03-14T08:23:28.542Z,4.55
2018-03-14T08:25:55.215Z,4.65
2018-03-14T08:28:21.836Z,4.97
2018-03-14T08:30:49.158Z,5.07
2018-03-14T08:33:15.798Z,4.70
2018-03-14T08:35:42.378Z,4.47
2018-03-14T08:38:09.621Z,5.80
2018-03-14T08:40:36.242Z,4.85
2018-03-14T08:43:02.886Z,4.80
2018-03-14T08:45:30.259Z,5.20
2018-03-14T08:47:56.862Z,5.10
2018-03-14T08:50:24.240Z,4.82
2018-03-14T08:52:50.802Z,4.95
2018-03-14T08:55:17.382Z,4.72
2018-03-14T08:57:43.938Z,4.30
2018-03-14T09:00:10.549Z,4.85
2018-03-14T09:02:37.137Z,5.00
2018-03-14T09:05:03.995Z,4.25
2018-03-14T09:07:30.664Z,4.32
2018-03-14T09:09:57.262Z,4.72
2018-03-14T09:12:23.833Z,4.90
2018-03-14T09:14:50.410Z,5.07
2018-03-14T09:17:17.022Z,4.95
2018-03-14T09:19:43.627Z,5.50
2018-03-14T09:22:10.275Z,4.32
2018-03-14T09:24:36.866Z,4.80
2018-03-14T09:27:03.501Z,5.32
2018-03-14T09:29:30.139Z,5.45
2018-03-14T09:31:56.964Z,5.28
2018-03-14T09:34:24.560Z,5.25
2018-03-14T09:36:51.166Z,5.75
2018-03-14T09:39:18.541Z,5.75
2018-03-14T09:41:45.131Z,4.53
2018-03-14T09:44:11.800Z,5.00
2018-03-14T09:46:38.394Z,4.53
2018-03-14T09:49:05.035Z,4.57
2018-03-14T09:51:31.676Z,4.10
2018-03-14T09:53:59.072Z,4.50
2018-03-14T09:56:25.719Z,4.10
2018-03-14T09:58:52.577Z,4.20
2018-03-14T10:01:19.201Z,4.20
2018-03-14T10:03:45.820Z,4.40
2018-03-14T10:06:12.459Z,4.90
2018-03-14T10:08:39.782Z,4.40
2018-03-14T10:11:06.446Z,4.40
2018-03-14T10:13:33.776Z,4.75
2018-03-14T10:16:00.387Z,5.18
2018-03-14T10:18:26.983Z,4.75
2018-03-14T10:20:53.620Z,5.55
2018-03-14T10:23:20.257Z,6.43
2018-03-14T10:25:46.881Z,4.80
2018-03-14T10:28:14.228Z,5.75
2018-03-14T10:30:40.812Z,4.20
2018-03-14T10:33:07.398Z,4.82
2018-03-14T10:35:34.007Z,4.30
2018-03-14T10:38:00.598Z,4.95
2018-03-14T10:40:27.174Z,5.43
2018-03-14T10:42:53.757Z,4.80
2018-03-14T10:45:21.963Z,4.30
2018-03-14T10:47:48.550Z,4.87
2018-03-14T10:50:15.129Z,4.93
2018-03-14T10:52:41.714Z,4.85
2018-03-14T10:55:08.557Z,4.37
2018-03-14T10:57:35.983Z,4.43
2018-03-14T11:00:02.596Z,4.28
2018-03-14T11:02:30.152Z,5.28
2018-03-14T11:04:56.722Z,5.55
2018-03-14T11:07:24.121Z,5.40
2018-03-14T11:09:50.711Z,4.03
2018-03-14T11:12:17.328Z,3.97
2018-03-14T11:14:44.741Z,4.05
2018-03-14T11:17:11.357Z,4.50
2018-03-14T11:19:37.997Z,4.32
2018-03-14T11:22:04.640Z,4.70
2018-03-14T11:24:31.311Z,3.92
2018-03-14T11:26:59.691Z,4.45
2018-03-14T11:29:27.015Z,6.60
2018-03-14T11:31:53.673Z,6.10
2018-03-14T11:34:20.347Z,4.10
2018-03-14T11:36:46.902Z,4.30
2018-03-14T11:39:13.484Z,4.45
2018-03-14T11:41:40.130Z,4.22
2018-03-14T11:44:06.706Z,3.33
2018-03-14T11:46:33.394Z,3.92
2018-03-14T11:48:59.974Z,3.10
2018-03-14T11:51:26.570Z,3.72
2018-03-14T11:53:53.908Z,3.53
2018-03-14T11:56:20.479Z,3.70
2018-03-14T11:58:47.031Z,3.10
2018-03-14T12:01:13.612Z,3.25
2018-03-14T12:03:40.191Z,4.10
2018-03-14T12:06:06.755Z,4.37
2018-03-14T12:08:33.346Z,3.20
2018-03-14T12:11:00.679Z,3.35
2018-03-14T12:13:27.297Z,4.10
2018-03-14T12:15:53.960Z,3.50
2018-03-14T12:18:21.345Z,3.42
2018-03-14T12:20:48.218Z,3.92
2018-03-14T12:23:15.670Z,3.50
2018-03-14T12:25:42.252Z,3.28
2018-03-14T12:28:08.859Z,3.20
2018-03-14T12:30:35.443Z,3.17
2018-03-14T12:33:02.054Z,3.35
2018-03-14T12:35:28.925Z,3.00
2018-03-14T12:37:55.499Z,3.70
2018-03-14T12:40:22.098Z,3.60
2018-03-14T12:42:48.703Z,3.67
2018-03-14T12:45:15.277Z,3.55
2018-03-14T12:47:41.880Z,2.95
2018-03-14T12:50:08.459Z,3.40
2018-03-14T12:52:35.325Z,2.97
2018-03-14T12:55:01.971Z,3.90
2018-03-14T12:57:28.580Z,3.15
2018-03-14T12:59:55.307Z,2.90
2018-03-14T13:02:21.914Z,2.90
2018-03-14T13:04:48.522Z,3.42
2018-03-14T13:07:15.227Z,3.58
2018-03-14T13:09:41.800Z,3.62
2018-03-14T13:12:08.410Z,2.87
2018-03-14T13:14:35.205Z,3.70
2018-03-14T13:17:01.861Z,4.00
2018-03-14T13:19:29.206Z,3.20
2018-03-14T13:21:55.806Z,3.28
2018-03-14T13:24:22.375Z,4.45
2018-03-14T13:26:49.715Z,4.20
2018-03-14T13:29:16.498Z,3.53
2018-03-14T13:31:43.120Z,3.17
2018-03-14T13:34:10.561Z,3.83
2018-03-14T13:36:37.175Z,3.67
2018-03-14T13:39:03.830Z,3.33
2018-03-14T13:41:30.445Z,4.35
2018-03-14T13:43:57.046Z,4.10
2018-03-14T13:46:23.666Z,4.82
2018-03-14T13:48:50.474Z,5.47
2018-03-14T13:51:17.075Z,5.10
2018-03-14T13:53:43.655Z,4.72
2018-03-14T13:56:11.403Z,4.60
2018-03-14T13:58:38.001Z,4.65
2018-03-14T14:01:04.631Z,4.70
2018-03-14T14:03:31.206Z,5.07
2018-03-14T14:05:57.809Z,4.15
2018-03-14T14:08:24.391Z,4.78
2018-03-14T14:10:50.962Z,4.25
2018-03-14T14:13:17.600Z,4.35
2018-03-14T14:15:44.214Z,4.80
2018-03-14T14:18:11.032Z,4.65
2018-03-14T14:20:37.606Z,5.62
2018-03-14T14:23:05.574Z,5.82
2018-03-14T14:25:32.286Z,4.45
2018-03-14T14:27:58.900Z,4.70
2018-03-14T14:30:25.485Z,4.90
2018-03-14T14:32:53.134Z,4.50
2018-03-14T14:35:19.741Z,5.50
2018-03-14T14:37:46.319Z,3.72
2018-03-14T14:40:13.630Z,6.53
2018-03-14T14:42:40.200Z,5.95
2018-03-14T14:45:06.806Z,4.85
2018-03-14T14:47:33.421Z,5.32
2018-03-14T14:50:00.019Z,4.40
2018-03-14T14:52:26.647Z,10.25
2018-03-14T14:54:53.950Z,9.65
2018-03-14T14:57:20.534Z,6.28
2018-03-14T14:59:47.124Z,12.15
2018-03-14T15:02:13.902Z,4.65
2018-03-14T15:04:40.482Z,4.43
2018-03-14T15:07:07.071Z,5.12
2018-03-14T15:09:33.647Z,6.90
2018-03-14T15:12:00.250Z,16.37
2018-03-14T15:14:27.774Z,15.75
2018-03-14T15:16:54.378Z,5.80
2018-03-14T15:19:20.999Z,55.30
2018-03-14T15:21:47.630Z,5.55
2018-03-14T15:24:14.178Z,5.30
2018-03-14T15:26:41.526Z,35.60
2018-03-14T15:29:08.863Z,54.03
2018-03-14T15:31:35.486Z,60.88
2018-03-14T15:34:02.111Z,80.50
2018-03-14T15:36:28.728Z,77.47
2018-03-14T15:38:55.356Z,78.18
2018-03-14T15:41:21.994Z,64.37
2018-03-14T15:43:48.602Z,67.62
2018-03-14T15:46:16.031Z,72.85
2018-03-14T15:48:43.375Z,79.62
2018-03-14T15:51:09.951Z,68.72
2018-03-14T15:53:37.248Z,74.95
2018-03-14T15:56:04.022Z,85.65
2018-03-14T15:58:31.208Z,67.68
2018-03-14T16:00:57.818Z,62.88
2018-03-14T16:03:24.663Z,56.45
2018-03-14T16:05:51.253Z,76.05
2018-03-14T16:08:17.859Z,11.95
2018-03-14T16:10:45.182Z,65.43
2018-03-14T16:13:11.816Z,19.12
2018-03-14T16:15:38.398Z,17.05
2018-03-14T16:18:05.033Z,6.75
2018-03-14T16:20:31.657Z,15.70
2018-03-14T16:22:58.309Z,15.90
2018-03-14T16:25:25.775Z,5.15
2018-03-14T16:27:52.393Z,4.85
2018-03-14T16:30:18.963Z,4.10
2018-03-14T16:32:45.571Z,5.60
2018-03-14T16:35:12.207Z,7.95
2018-03-14T16:37:38.817Z,14.65
2018-03-14T16:40:06.174Z,15.43
2018-03-14T16:42:32.780Z,21.45
2018-03-14T16:44:59.358Z,22.05
2018-03-14T16:47:26.115Z,16.37
2018-03-14T16:49:52.707Z,17.40
2018-03-14T16:52:20.458Z,22.75
2018-03-14T16:54:47.047Z,11.82
2018-03-14T16:57:13.641Z,16.12
2018-03-14T16:59:40.300Z,79.85
2018-03-14T17:02:07.662Z,140.62
2018-03-14T17:04:34.291Z,16.90
2018-03-14T17:07:01.631Z,14.10
2018-03-14T17:09:29.190Z,91.15
2018-03-14T17:11:55.806Z,12.50
2018-03-14T17:14:27.280Z,60.45
2018-03-14T17:16:49.039Z,80.07
2018-03-14T17:19:15.787Z,28.38
2018-03-14T17:21:42.406Z,54.35
2018-03-14T17:24:09.013Z,77.25
2018-03-14T17:26:35.654Z,79.07
2018-03-14T17:29:02.286Z,74.78
2018-03-14T17:31:29.855Z,94.30
2018-03-14T17:33:57.447Z,81.10
2018-03-14T17:36:24.093Z,112.00
2018-03-14T17:38:50.832Z,132.18
2018-03-14T17:41:17.463Z,107.75
2018-03-14T17:43:44.186Z,150.45
2018-03-14T17:46:10.848Z,39.28
2018-03-14T17:48:37.706Z,111.35
2018-03-14T17:51:04.326Z,97.72
2018-03-14T17:53:30.899Z,109.70
2018-03-14T17:55:57.527Z,72.75
2018-03-14T17:58:24.118Z,18.83
2018-03-14T18:00:51.518Z,12.65
2018-03-14T18:03:18.151Z,40.72
2018-03-14T18:05:44.877Z,29.95
2018-03-14T18:08:11.516Z,89.93
2018-03-14T18:10:38.200Z,96.95
2018-03-14T18:13:04.845Z,71.20
2018-03-14T18:15:31.602Z,82.60
2018-03-14T18:17:58.957Z,128.15
2018-03-14T18:20:25.548Z,90.12
2018-03-14T18:22:53.107Z,17.02
2018-03-14T18:25:19.819Z,75.78
2018-03-14T18:27:47.019Z,69.18
2018-03-14T18:30:13.648Z,91.63
2018-03-14T18:32:40.285Z,61.67
2018-03-14T18:35:06.941Z,57.88
2018-03-14T18:37:33.560Z,53.30
2018-03-14T18:40:00.213Z,60.42
2018-03-14T18:42:28.748Z,50.30
2018-03-14T18:44:55.370Z,89.55
2018-03-14T18:47:21.960Z,54.80
2018-03-14T18:49:49.465Z,62.10
2018-03-14T18:52:16.260Z,65.05
2018-03-14T18:54:43.668Z,56.90
2018-03-14T18:57:10.312Z,92.10
2018-03-14T18:59:36.948Z,7.45
2018-03-14T19:02:03.639Z,43.95
2018-03-14T19:04:31.242Z,64.70
2018-03-14T19:06:57.858Z,92.75
2018-03-14T19:09:24.507Z,92.15
2018-03-14T19:11:51.160Z,95.70
2018-03-14T19:14:17.805Z,97.15
2018-03-14T19:16:44.430Z,83.15
2018-03-14T19:19:11.076Z,7.82
2018-03-14T19:21:37.679Z,86.07
2018-03-14T19:24:05.045Z,100.07
2018-03-14T19:26:31.654Z,86.07
2018-03-14T19:28:58.261Z,97.90
2018-03-14T19:31:25.614Z,96.60
2018-03-14T19:33:52.251Z,89.40
2018-03-14T19:36:19.615Z,100.50
2018-03-14T19:38:46.307Z,88.62
2018-03-14T19:41:13.246Z,96.80
2018-03-14T19:43:39.877Z,91.85
2018-03-14T19:46:07.257Z,90.70
2018-03-14T19:48:33.885Z,88.97
2018-03-14T19:51:00.554Z,93.65
2018-03-14T19:53:27.179Z,113.53
2018-03-14T19:55:53.831Z,112.68
2018-03-14T19:58:21.107Z,98.75
2018-03-14T20:00:47.796Z,52.60
2018-03-14T20:03:14.465Z,90.28
2018-03-14T20:05:41.129Z,188.80
2018-03-14T20:08:07.749Z,93.07
2018-03-14T20:10:34.357Z,104.82
2018-03-14T20:13:00.953Z,102.93
2018-03-14T20:15:28.343Z,112.90
2018-03-14T20:17:54.932Z,106.20
2018-03-14T20:20:22.342Z,93.00
2018-03-14T20:22:49.016Z,96.18
2018-03-14T20:25:15.599Z,95.75
2018-03-14T20:27:42.339Z,97.25
2018-03-14T20:30:09.719Z,99.18
2018-03-14T20:32:36.344Z,101.68
2018-03-14T20:35:02.999Z,102.78
2018-03-14T20:37:29.611Z,96.87
2018-03-14T20:39:56.211Z,93.72
2018-03-14T20:42:23.579Z,95.35
2018-03-14T20:44:50.234Z,99.50
2018-03-14T20:47:16.855Z,95.60
2018-03-14T20:49:43.510Z,92.80
2018-03-14T20:52:10.268Z,95.25
2018-03-14T20:54:36.903Z,91.35
2018-03-14T20:57:03.575Z,104.85
2018-03-14T20:59:30.202Z,97.90
2018-03-14T21:01:57.579Z,93.03
2018-03-14T21:04:24.197Z,95.60
2018-03-14T21:06:50.830Z,96.40
2018-03-14T21:09:17.448Z,95.75
2018-03-14T21:11:44.105Z,96.28
2018-03-14T21:14:10.767Z,99.07
2018-03-14T21:16:37.966Z,98.47
2018-03-14T21:19:04.595Z,95.93
2018-03-14T21:21:31.259Z,93.10
2018-03-14T21:23:57.883Z,90.03
2018-03-14T21:26:24.490Z,93.65
2018-03-14T21:28:51.826Z,93.25
2018-03-14T21:31:18.443Z,93.43
2018-03-14T21:33:45.855Z,92.43
2018-03-14T21:36:12.492Z,91.82
2018-03-14T21:38:39.103Z,99.32
2018-03-14T21:41:06.479Z,91.60
2018-03-14T21:43:33.134Z,91.53
2018-03-14T21:45:59.858Z,92.75
2018-03-14T21:48:26.499Z,94.18
2018-03-14T21:50:53.140Z,94.87
2018-03-14T21:53:19.890Z,96.85
2018-03-14T21:55:46.539Z,97.45
2018-03-14T21:58:13.334Z,94.53
2018-03-14T22:00:39.911Z,98.62
2018-03-14T22:03:06.549Z,98.12
2018-03-14T22:05:33.229Z,99.97
2018-03-14T22:07:59.847Z,105.95
2018-03-14T22:10:26.450Z,95.20
2018-03-14T22:12:53.144Z,90.80
2018-03-14T22:15:19.751Z,86.90
2018-03-14T22:17:46.412Z,89.25
2018-03-14T22:20:13.066Z,90.12
2018-03-14T22:22:40.449Z,90.78
2018-03-14T22:25:07.315Z,93.20
2018-03-14T22:27:33.916Z,90.03
2018-03-14T22:30:00.539Z,86.65
2018-03-14T22:32:27.851Z,88.03
2018-03-14T22:34:54.434Z,88.85
2018-03-14T22:37:21.779Z,94.10
2018-03-14T22:39:49.116Z,88.28
2018-03-14T22:42:15.682Z,90.95
2018-03-14T22:44:43.150Z,97.28
2018-03-14T22:47:09.932Z,99.43
2018-03-14T22:49:36.518Z,99.13
2018-03-14T22:52:03.170Z,101.72
2018-03-14T22:54:29.739Z,107.70
2018-03-14T22:56:56.342Z,96.20
2018-03-14T22:59:22.999Z,98.82
2018-03-14T23:01:49.640Z,107.22
2018-03-14T23:04:16.312Z,97.72
2018-03-14T23:06:42.872Z,98.43
2018-03-14T23:09:09.513Z,101.62
2018-03-14T23:11:36.136Z,94.47
2018-03-14T23:14:03.481Z,99.28
2018-03-14T23:16:30.515Z,97.18
2018-03-14T23:18:57.138Z,89.18
2018-03-14T23:21:23.753Z,89.82
2018-03-14T23:23:50.348Z,89.28
2018-03-14T23:26:18.586Z,92.25
2018-03-14T23:28:45.205Z,89.53
2018-03-14T23:31:11.847Z,88.30
2018-03-14T23:33:38.431Z,84.43
2018-03-14T23:36:05.012Z,82.93
2018-03-14T23:38:31.619Z,85.00
2018-03-14T23:40:59.091Z,84.65
2018-03-14T23:43:25.747Z,82.32
2018-03-14T23:45:52.897Z,82.05
2018-03-14T23:48:19.646Z,83.12
2018-03-14T23:50:46.237Z,82.72
2018-03-14T23:53:13.567Z,84.72
2018-03-14T23:55:40.174Z,85.18
2018-03-14T23:58:06.768Z,90.90
